aviador You're here:

KPUB Decoded Metar

PUEBLO MEMORIAL in CO, USA
Report Time2018-07-22 15:53:00
UTC Time2018-07-22 16:15:37
Flight Rules vfr VFR
Wind120° at 06 kt
W.Decomp.*RWY 08: 5.1 kt HW 3.2 kt RCW
RWY 17: 3.2 kt HW 5.1 kt LCW
W.Rank120° ranks 2
Current wind is below 120° avg. (8.3)
Visibility9999 m
Phenomena:N/A
Clouds:N/A
Expected CloudBase > 4,000 ft AGL from Temp-Dew spread
CeilingNone
Temp27°C (ISA +21)
Dew Point17°C (54% RH)
Heat Index27.7°C
QNH1020 hPa
Density Alt7,123 ft
Elevation4,659 ft
Report Wrong Elevation
Raw Report
KPUB 221553Z 12006KT 10SM CLR 27/17 A3012 RMK AO2 SLP128
T02720172=

Extra information for KPUB:More info

Metar Taf Metar & Taf Last 4 Metars F.Rules Stats Wind Profile Meteogram Temp Stats Airport Information Weather charts Add Link Nearby VenuesMetar ALERT Operation Metar Decoded Social comments

AIRNAV info for KPUB